This is the latest recevied weather packets stored in our database for station/object AB0TJ. If no packets are shown the sender has not sent any weather packets the latest 10 day(s).
| Time | Temp. | Humidity | Pressure | Rain* | Wind** | Luminosity | Snow |
|---|---|---|---|---|---|---|---|
| 1777677543 | 22.78° C | 18% | 1015 hPa | 0 mm | - | 426 W/m² | - |
| 1777677024 | 22.78° C | 18% | 1015.1 hPa | 0 mm | - | 516 W/m² | - |
| 1777676459 | 22.22° C | 18% | 1014.7 hPa | 0 mm | - | 523 W/m² | - |
| 1777675944 | 22.22° C | 18% | 1015.4 hPa | 0 mm | - | 522 W/m² | - |
| 1777675459 | 22.22° C | 19% | 1015.2 hPa | 0 mm | - | 335 W/m² | - |
| 1777674885 | 21.67° C | 20% | 1015.1 hPa | 0 mm | - | 562 W/m² | - |
| 1777674405 | 21.67° C | 20% | 1015.3 hPa | 0 mm | - | 463 W/m² | - |
| 1777673913 | 21.67° C | 20% | 1015.1 hPa | 0 mm | - | 641 W/m² | - |
| 1777673373 | 21.67° C | 21% | 1015.4 hPa | 0 mm | - | 657 W/m² | - |
| 1777672809 | 21.67° C | 21% | 1015.5 hPa | 0 mm | - | 700 W/m² | - |
| 1777672224 | 20.56° C | 22% | 1015.7 hPa | 0 mm | - | 671 W/m² | - |
| 1777671704 | 20.56° C | 21% | 1015.8 hPa | 0 mm | - | 714 W/m² | - |
| 1777671104 | 20.56° C | 22% | 1016.1 hPa | 0 mm | - | 764 W/m² | - |
| 1777670594 | 20.56° C | 22% | 1016.2 hPa | 0 mm | - | 772 W/m² | - |
| 1777670049 | 20.56° C | 23% | 1016.3 hPa | 0 mm | - | 745 W/m² | - |
| 1777669564 | 20° C | 23% | 1016.4 hPa | 0 mm | - | 803 W/m² | - |
| 1777669076 | 20° C | 23% | 1016.4 hPa | 0 mm | - | 827 W/m² | - |
| 1777668599 | 20° C | 23% | 1016.5 hPa | 0 mm | - | 679 W/m² | - |
| 1777668019 | 20° C | 24% | 1016.7 hPa | 0 mm | - | 805 W/m² | - |
| 1777667524 | 19.44° C | 24% | 1016.6 hPa | 0 mm | - | 787 W/m² | - |
| 1777667024 | 18.89° C | 25% | 1016.7 hPa | 0 mm | - | 828 W/m² | - |
| 1777666460 | 18.89° C | 24% | 1016.6 hPa | 0 mm | - | 676 W/m² | - |
| 1777665919 | 18.33° C | 26% | 1016.8 hPa | 0 mm | - | 852 W/m² | - |
| 1777665379 | 18.33° C | 27% | 1017 hPa | 0 mm | - | 892 W/m² | - |
| 1777664789 | 19.44° C | 27% | 1017.2 hPa | 0 mm | - | 316 W/m² | - |
* Rain latest hour (hover to see other rain measurements)
** Current wind speed in m/s (hover to see current wind gust speed)